sensor_id;sensor_type;location;lat;lon;timestamp;P1;durP1;ratioP1;P2;durP2;ratioP2
66179;SDS011;52986;44.028;20.466;2022-11-02T00:00:26;41.83;;;20.08;;
66179;SDS011;52986;44.028;20.466;2022-11-02T00:02:52;47.15;;;19.85;;
66179;SDS011;52986;44.028;20.466;2022-11-02T00:05:18;47.95;;;20.67;;
66179;SDS011;52986;44.028;20.466;2022-11-02T00:07:48;45.53;;;20.23;;
66179;SDS011;52986;44.028;20.466;2022-11-02T00:10:17;44.40;;;20.08;;
66179;SDS011;52986;44.028;20.466;2022-11-02T00:12:43;43.13;;;20.50;;
66179;SDS011;52986;44.028;20.466;2022-11-02T00:15:09;44.90;;;22.17;;
66179;SDS011;52986;44.028;20.466;2022-11-02T00:17:35;42.28;;;19.40;;
66179;SDS011;52986;44.028;20.466;2022-11-02T00:20:02;41.47;;;20.15;;
66179;SDS011;52986;44.028;20.466;2022-11-02T00:22:28;41.90;;;19.13;;
66179;SDS011;52986;44.028;20.466;2022-11-02T00:24:53;40.72;;;19.70;;
66179;SDS011;52986;44.028;20.466;2022-11-02T00:27:19;42.47;;;19.33;;
66179;SDS011;52986;44.028;20.466;2022-11-02T00:29:46;42.30;;;18.83;;
66179;SDS011;52986;44.028;20.466;2022-11-02T00:32:11;37.95;;;17.92;;
66179;SDS011;52986;44.028;20.466;2022-11-02T00:34:37;41.55;;;19.38;;
66179;SDS011;52986;44.028;20.466;2022-11-02T00:37:03;41.25;;;19.02;;
66179;SDS011;52986;44.028;20.466;2022-11-02T00:39:28;35.17;;;17.97;;
66179;SDS011;52986;44.028;20.466;2022-11-02T00:41:53;39.58;;;18.52;;
66179;SDS011;52986;44.028;20.466;2022-11-02T00:44:19;41.20;;;18.73;;
66179;SDS011;52986;44.028;20.466;2022-11-02T00:46:44;40.87;;;18.57;;
66179;SDS011;52986;44.028;20.466;2022-11-02T00:49:09;38.75;;;17.52;;
66179;SDS011;52986;44.028;20.466;2022-11-02T00:51:35;32.95;;;16.60;;
66179;SDS011;52986;44.028;20.466;2022-11-02T00:54:00;41.80;;;20.20;;
66179;SDS011;52986;44.028;20.466;2022-11-02T00:56:25;49.60;;;22.17;;
66179;SDS011;52986;44.028;20.466;2022-11-02T00:58:51;45.33;;;21.42;;
66179;SDS011;52986;44.028;20.466;2022-11-02T01:01:17;44.10;;;20.52;;
66179;SDS011;52986;44.028;20.466;2022-11-02T01:03:42;40.85;;;20.15;;
66179;SDS011;52986;44.028;20.466;2022-11-02T01:06:08;42.08;;;19.52;;
66179;SDS011;52986;44.028;20.466;2022-11-02T01:08:35;43.92;;;20.98;;
66179;SDS011;52986;44.028;20.466;2022-11-02T01:11:11;43.10;;;20.08;;
66179;SDS011;52986;44.028;20.466;2022-11-02T01:13:38;42.80;;;19.95;;
66179;SDS011;52986;44.028;20.466;2022-11-02T01:16:03;43.05;;;19.45;;
66179;SDS011;52986;44.028;20.466;2022-11-02T01:18:29;37.30;;;18.77;;
66179;SDS011;52986;44.028;20.466;2022-11-02T01:20:55;36.88;;;17.92;;
66179;SDS011;52986;44.028;20.466;2022-11-02T01:23:21;40.10;;;18.42;;
66179;SDS011;52986;44.028;20.466;2022-11-02T01:25:46;40.47;;;19.00;;
66179;SDS011;52986;44.028;20.466;2022-11-02T01:28:12;39.93;;;18.30;;
66179;SDS011;52986;44.028;20.466;2022-11-02T01:30:37;40.63;;;18.98;;
66179;SDS011;52986;44.028;20.466;2022-11-02T01:33:06;41.78;;;17.13;;
66179;SDS011;52986;44.028;20.466;2022-11-02T01:35:31;36.53;;;18.50;;
66179;SDS011;52986;44.028;20.466;2022-11-02T01:37:57;37.45;;;17.42;;
66179;SDS011;52986;44.028;20.466;2022-11-02T01:40:22;39.20;;;18.10;;
66179;SDS011;52986;44.028;20.466;2022-11-02T01:42:48;40.65;;;18.02;;
66179;SDS011;52986;44.028;20.466;2022-11-02T01:45:13;39.38;;;17.63;;
66179;SDS011;52986;44.028;20.466;2022-11-02T01:47:43;37.22;;;18.05;;
66179;SDS011;52986;44.028;20.466;2022-11-02T01:50:14;41.53;;;18.98;;
66179;SDS011;52986;44.028;20.466;2022-11-02T01:52:49;40.78;;;18.88;;
66179;SDS011;52986;44.028;20.466;2022-11-02T01:55:17;42.75;;;18.63;;
66179;SDS011;52986;44.028;20.466;2022-11-02T01:57:47;38.60;;;17.00;;
66179;SDS011;52986;44.028;20.466;2022-11-02T02:00:19;36.72;;;16.77;;
66179;SDS011;52986;44.028;20.466;2022-11-02T02:02:46;36.95;;;16.88;;
66179;SDS011;52986;44.028;20.466;2022-11-02T02:05:15;41.78;;;16.77;;
66179;SDS011;52986;44.028;20.466;2022-11-02T02:07:41;41.90;;;18.10;;
66179;SDS011;52986;44.028;20.466;2022-11-02T02:10:08;35.88;;;16.83;;
66179;SDS011;52986;44.028;20.466;2022-11-02T02:12:34;41.00;;;17.83;;
66179;SDS011;52986;44.028;20.466;2022-11-02T02:15:02;36.28;;;18.17;;
66179;SDS011;52986;44.028;20.466;2022-11-02T02:30:39;34.35;;;15.73;;
66179;SDS011;52986;44.028;20.466;2022-11-02T02:33:37;34.40;;;16.00;;
66179;SDS011;52986;44.028;20.466;2022-11-02T02:41:38;31.38;;;15.10;;
66179;SDS011;52986;44.028;20.466;2022-11-02T02:44:15;32.40;;;14.50;;
66179;SDS011;52986;44.028;20.466;2022-11-02T02:49:17;33.67;;;16.17;;
66179;SDS011;52986;44.028;20.466;2022-11-02T02:51:46;35.35;;;15.93;;
66179;SDS011;52986;44.028;20.466;2022-11-02T02:54:14;38.63;;;16.67;;
66179;SDS011;52986;44.028;20.466;2022-11-02T02:56:45;34.17;;;15.65;;
66179;SDS011;52986;44.028;20.466;2022-11-02T03:04:12;35.38;;;16.33;;
66179;SDS011;52986;44.028;20.466;2022-11-02T03:06:37;37.85;;;16.17;;
66179;SDS011;52986;44.028;20.466;2022-11-02T03:11:30;33.17;;;14.93;;
66179;SDS011;52986;44.028;20.466;2022-11-02T03:17:13;32.92;;;15.50;;
66179;SDS011;52986;44.028;20.466;2022-11-02T03:25:20;35.60;;;15.18;;
66179;SDS011;52986;44.028;20.466;2022-11-02T03:28:06;35.03;;;16.00;;
66179;SDS011;52986;44.028;20.466;2022-11-02T03:30:48;33.10;;;14.88;;
66179;SDS011;52986;44.028;20.466;2022-11-02T03:33:33;34.45;;;15.30;;
66179;SDS011;52986;44.028;20.466;2022-11-02T03:36:06;31.85;;;13.65;;
66179;SDS011;52986;44.028;20.466;2022-11-02T03:38:55;31.90;;;14.65;;
66179;SDS011;52986;44.028;20.466;2022-11-02T03:41:24;34.30;;;14.48;;
66179;SDS011;52986;44.028;20.466;2022-11-02T03:43:52;30.52;;;13.38;;
66179;SDS011;52986;44.028;20.466;2022-11-02T03:46:23;29.83;;;12.93;;
66179;SDS011;52986;44.028;20.466;2022-11-02T03:48:50;30.48;;;13.43;;
66179;SDS011;52986;44.028;20.466;2022-11-02T03:51:19;29.08;;;13.23;;
66179;SDS011;52986;44.028;20.466;2022-11-02T03:54:04;31.23;;;14.07;;
66179;SDS011;52986;44.028;20.466;2022-11-02T03:56:38;29.17;;;13.30;;
66179;SDS011;52986;44.028;20.466;2022-11-02T03:59:07;28.63;;;13.07;;
66179;SDS011;52986;44.028;20.466;2022-11-02T04:01:36;31.73;;;13.85;;
66179;SDS011;52986;44.028;20.466;2022-11-02T04:04:07;30.58;;;12.70;;
66179;SDS011;52986;44.028;20.466;2022-11-02T04:06:32;31.70;;;13.70;;
66179;SDS011;52986;44.028;20.466;2022-11-02T04:08:59;31.08;;;13.27;;
66179;SDS011;52986;44.028;20.466;2022-11-02T04:11:24;30.95;;;14.13;;
66179;SDS011;52986;44.028;20.466;2022-11-02T04:14:09;31.23;;;13.85;;
66179;SDS011;52986;44.028;20.466;2022-11-02T04:16:53;33.10;;;13.60;;
66179;SDS011;52986;44.028;20.466;2022-11-02T04:19:38;29.15;;;12.93;;
66179;SDS011;52986;44.028;20.466;2022-11-02T04:22:03;26.45;;;12.40;;
66179;SDS011;52986;44.028;20.466;2022-11-02T04:24:47;34.45;;;13.82;;
66179;SDS011;52986;44.028;20.466;2022-11-02T04:27:31;32.78;;;14.38;;
66179;SDS011;52986;44.028;20.466;2022-11-02T04:29:57;31.98;;;13.27;;
66179;SDS011;52986;44.028;20.466;2022-11-02T04:32:23;33.35;;;13.43;;
66179;SDS011;52986;44.028;20.466;2022-11-02T04:35:08;28.05;;;13.32;;
66179;SDS011;52986;44.028;20.466;2022-11-02T04:37:38;33.10;;;14.45;;
66179;SDS011;52986;44.028;20.466;2022-11-02T04:40:22;31.23;;;14.38;;
66179;SDS011;52986;44.028;20.466;2022-11-02T04:42:48;36.65;;;15.20;;
66179;SDS011;52986;44.028;20.466;2022-11-02T04:45:13;33.38;;;15.68;;
66179;SDS011;52986;44.028;20.466;2022-11-02T04:47:39;29.30;;;14.35;;
66179;SDS011;52986;44.028;20.466;2022-11-02T04:50:04;31.23;;;13.50;;
66179;SDS011;52986;44.028;20.466;2022-11-02T04:52:30;29.50;;;13.52;;
66179;SDS011;52986;44.028;20.466;2022-11-02T04:54:55;30.40;;;14.02;;
66179;SDS011;52986;44.028;20.466;2022-11-02T04:57:20;28.38;;;13.05;;
66179;SDS011;52986;44.028;20.466;2022-11-02T04:59:46;28.63;;;13.20;;
66179;SDS011;52986;44.028;20.466;2022-11-02T05:02:11;33.38;;;13.30;;
66179;SDS011;52986;44.028;20.466;2022-11-02T05:04:37;30.50;;;12.93;;
66179;SDS011;52986;44.028;20.466;2022-11-02T05:07:02;33.20;;;12.57;;
66179;SDS011;52986;44.028;20.466;2022-11-02T05:09:30;28.08;;;12.75;;
66179;SDS011;52986;44.028;20.466;2022-11-02T05:11:55;27.80;;;12.82;;
66179;SDS011;52986;44.028;20.466;2022-11-02T05:14:21;34.22;;;14.82;;
66179;SDS011;52986;44.028;20.466;2022-11-02T05:16:46;34.00;;;14.55;;
66179;SDS011;52986;44.028;20.466;2022-11-02T05:19:12;28.80;;;12.55;;
66179;SDS011;52986;44.028;20.466;2022-11-02T05:21:37;32.53;;;13.52;;
66179;SDS011;52986;44.028;20.466;2022-11-02T05:24:02;34.65;;;13.80;;
66179;SDS011;52986;44.028;20.466;2022-11-02T05:26:28;32.90;;;14.25;;
66179;SDS011;52986;44.028;20.466;2022-11-02T05:28:53;32.27;;;13.57;;
66179;SDS011;52986;44.028;20.466;2022-11-02T05:31:19;30.73;;;13.82;;
66179;SDS011;52986;44.028;20.466;2022-11-02T05:33:44;32.70;;;14.57;;
66179;SDS011;52986;44.028;20.466;2022-11-02T05:36:09;34.53;;;14.23;;
66179;SDS011;52986;44.028;20.466;2022-11-02T05:38:35;36.08;;;14.98;;
66179;SDS011;52986;44.028;20.466;2022-11-02T05:41:00;31.77;;;14.70;;
66179;SDS011;52986;44.028;20.466;2022-11-02T05:43:26;35.05;;;14.15;;
66179;SDS011;52986;44.028;20.466;2022-11-02T05:45:56;31.73;;;13.45;;
66179;SDS011;52986;44.028;20.466;2022-11-02T05:48:24;34.55;;;14.60;;
66179;SDS011;52986;44.028;20.466;2022-11-02T05:51:00;33.13;;;13.88;;
66179;SDS011;52986;44.028;20.466;2022-11-02T05:53:26;33.83;;;14.15;;
66179;SDS011;52986;44.028;20.466;2022-11-02T05:55:59;35.58;;;15.02;;
66179;SDS011;52986;44.028;20.466;2022-11-02T05:58:25;40.50;;;14.95;;
66179;SDS011;52986;44.028;20.466;2022-11-02T06:00:52;38.67;;;14.98;;
66179;SDS011;52986;44.028;20.466;2022-11-02T06:03:17;38.17;;;15.63;;
66179;SDS011;52986;44.028;20.466;2022-11-02T06:05:44;37.17;;;14.00;;
66179;SDS011;52986;44.028;20.466;2022-11-02T06:08:09;35.58;;;14.45;;
66179;SDS011;52986;44.028;20.466;2022-11-02T06:10:35;40.30;;;15.27;;
66179;SDS011;52986;44.028;20.466;2022-11-02T06:13:00;35.72;;;15.02;;
66179;SDS011;52986;44.028;20.466;2022-11-02T06:15:27;42.90;;;15.32;;
66179;SDS011;52986;44.028;20.466;2022-11-02T06:17:54;33.97;;;14.82;;
66179;SDS011;52986;44.028;20.466;2022-11-02T06:20:20;34.83;;;15.10;;
66179;SDS011;52986;44.028;20.466;2022-11-02T06:22:46;33.60;;;15.02;;
66179;SDS011;52986;44.028;20.466;2022-11-02T06:25:12;35.08;;;16.20;;
66179;SDS011;52986;44.028;20.466;2022-11-02T06:27:38;31.65;;;15.73;;
66179;SDS011;52986;44.028;20.466;2022-11-02T06:30:06;37.50;;;17.48;;
66179;SDS011;52986;44.028;20.466;2022-11-02T06:32:32;38.10;;;16.70;;
66179;SDS011;52986;44.028;20.466;2022-11-02T06:34:57;36.65;;;16.90;;
66179;SDS011;52986;44.028;20.466;2022-11-02T06:37:22;36.00;;;16.33;;
66179;SDS011;52986;44.028;20.466;2022-11-02T06:39:48;38.60;;;17.10;;
66179;SDS011;52986;44.028;20.466;2022-11-02T06:42:13;34.05;;;17.48;;
66179;SDS011;52986;44.028;20.466;2022-11-02T06:44:39;40.83;;;18.20;;
66179;SDS011;52986;44.028;20.466;2022-11-02T06:47:04;42.55;;;17.63;;
66179;SDS011;52986;44.028;20.466;2022-11-02T06:49:30;36.60;;;16.85;;
66179;SDS011;52986;44.028;20.466;2022-11-02T06:51:56;37.63;;;16.60;;
66179;SDS011;52986;44.028;20.466;2022-11-02T06:54:21;35.60;;;15.67;;
66179;SDS011;52986;44.028;20.466;2022-11-02T06:56:46;35.70;;;15.82;;
66179;SDS011;52986;44.028;20.466;2022-11-02T06:59:12;35.45;;;16.98;;
66179;SDS011;52986;44.028;20.466;2022-11-02T07:01:37;37.90;;;16.03;;
66179;SDS011;52986;44.028;20.466;2022-11-02T07:04:02;37.03;;;15.57;;
66179;SDS011;52986;44.028;20.466;2022-11-02T07:06:28;32.25;;;15.55;;
66179;SDS011;52986;44.028;20.466;2022-11-02T07:08:54;38.25;;;15.52;;
66179;SDS011;52986;44.028;20.466;2022-11-02T07:11:19;32.00;;;16.20;;
66179;SDS011;52986;44.028;20.466;2022-11-02T07:13:45;32.42;;;15.60;;
66179;SDS011;52986;44.028;20.466;2022-11-02T07:16:11;30.30;;;16.13;;
66179;SDS011;52986;44.028;20.466;2022-11-02T07:18:36;30.55;;;15.55;;
66179;SDS011;52986;44.028;20.466;2022-11-02T07:21:02;34.35;;;16.58;;
66179;SDS011;52986;44.028;20.466;2022-11-02T07:23:28;31.02;;;15.90;;
66179;SDS011;52986;44.028;20.466;2022-11-02T07:25:53;32.40;;;16.65;;
66179;SDS011;52986;44.028;20.466;2022-11-02T07:28:19;29.20;;;16.48;;
66179;SDS011;52986;44.028;20.466;2022-11-02T07:30:44;31.92;;;16.77;;
66179;SDS011;52986;44.028;20.466;2022-11-02T07:33:10;33.00;;;15.63;;
66179;SDS011;52986;44.028;20.466;2022-11-02T07:35:36;32.95;;;17.15;;
66179;SDS011;52986;44.028;20.466;2022-11-02T07:38:02;34.00;;;16.27;;
66179;SDS011;52986;44.028;20.466;2022-11-02T07:40:29;33.47;;;16.45;;
66179;SDS011;52986;44.028;20.466;2022-11-02T07:42:56;38.28;;;16.38;;
66179;SDS011;52986;44.028;20.466;2022-11-02T07:45:22;35.75;;;16.80;;
66179;SDS011;52986;44.028;20.466;2022-11-02T07:47:48;32.22;;;16.33;;
66179;SDS011;52986;44.028;20.466;2022-11-02T07:50:14;32.65;;;16.58;;
66179;SDS011;52986;44.028;20.466;2022-11-02T07:52:48;30.88;;;16.17;;
66179;SDS011;52986;44.028;20.466;2022-11-02T07:55:16;32.80;;;16.70;;
66179;SDS011;52986;44.028;20.466;2022-11-02T07:57:51;33.28;;;15.88;;
66179;SDS011;52986;44.028;20.466;2022-11-02T08:00:17;30.55;;;15.02;;
66179;SDS011;52986;44.028;20.466;2022-11-02T08:02:42;27.80;;;14.45;;
66179;SDS011;52986;44.028;20.466;2022-11-02T08:05:08;30.90;;;14.45;;
66179;SDS011;52986;44.028;20.466;2022-11-02T08:07:33;34.33;;;15.10;;
66179;SDS011;52986;44.028;20.466;2022-11-02T08:09:58;33.95;;;15.25;;
66179;SDS011;52986;44.028;20.466;2022-11-02T08:12:24;32.65;;;15.93;;
66179;SDS011;52986;44.028;20.466;2022-11-02T08:14:50;35.10;;;14.77;;
66179;SDS011;52986;44.028;20.466;2022-11-02T08:17:15;30.80;;;14.85;;
66179;SDS011;52986;44.028;20.466;2022-11-02T08:19:41;28.33;;;14.90;;
66179;SDS011;52986;44.028;20.466;2022-11-02T08:22:06;31.65;;;16.17;;
66179;SDS011;52986;44.028;20.466;2022-11-02T08:24:32;31.17;;;16.05;;
66179;SDS011;52986;44.028;20.466;2022-11-02T08:26:57;29.48;;;15.38;;
66179;SDS011;52986;44.028;20.466;2022-11-02T08:29:23;31.02;;;15.75;;
66179;SDS011;52986;44.028;20.466;2022-11-02T08:31:48;31.33;;;15.23;;
66179;SDS011;52986;44.028;20.466;2022-11-02T08:34:13;32.60;;;14.77;;
66179;SDS011;52986;44.028;20.466;2022-11-02T08:36:39;31.90;;;14.87;;
66179;SDS011;52986;44.028;20.466;2022-11-02T08:39:04;31.17;;;14.27;;
66179;SDS011;52986;44.028;20.466;2022-11-02T08:41:29;31.38;;;15.13;;
66179;SDS011;52986;44.028;20.466;2022-11-02T08:43:55;31.83;;;14.65;;
66179;SDS011;52986;44.028;20.466;2022-11-02T08:46:21;29.48;;;14.52;;
66179;SDS011;52986;44.028;20.466;2022-11-02T08:48:47;34.10;;;15.02;;
66179;SDS011;52986;44.028;20.466;2022-11-02T08:51:12;36.17;;;14.48;;
66179;SDS011;52986;44.028;20.466;2022-11-02T08:53:38;29.58;;;14.50;;
66179;SDS011;52986;44.028;20.466;2022-11-02T08:56:03;26.83;;;14.68;;
66179;SDS011;52986;44.028;20.466;2022-11-02T08:58:29;29.60;;;13.93;;
66179;SDS011;52986;44.028;20.466;2022-11-02T09:00:54;28.20;;;14.32;;
66179;SDS011;52986;44.028;20.466;2022-11-02T09:03:20;32.83;;;14.80;;
66179;SDS011;52986;44.028;20.466;2022-11-02T09:05:48;33.78;;;14.48;;
66179;SDS011;52986;44.028;20.466;2022-11-02T09:08:17;33.10;;;15.13;;
66179;SDS011;52986;44.028;20.466;2022-11-02T09:10:45;31.25;;;14.60;;
66179;SDS011;52986;44.028;20.466;2022-11-02T09:13:12;35.40;;;14.57;;
66179;SDS011;52986;44.028;20.466;2022-11-02T09:15:40;31.15;;;13.20;;
66179;SDS011;52986;44.028;20.466;2022-11-02T09:18:06;29.88;;;13.63;;
66179;SDS011;52986;44.028;20.466;2022-11-02T09:20:32;30.38;;;13.52;;
66179;SDS011;52986;44.028;20.466;2022-11-02T09:22:58;26.52;;;12.18;;
66179;SDS011;52986;44.028;20.466;2022-11-02T09:25:23;27.60;;;12.18;;
66179;SDS011;52986;44.028;20.466;2022-11-02T09:27:52;27.80;;;11.18;;
66179;SDS011;52986;44.028;20.466;2022-11-02T09:30:19;27.63;;;11.60;;
66179;SDS011;52986;44.028;20.466;2022-11-02T09:32:52;22.60;;;11.43;;
66179;SDS011;52986;44.028;20.466;2022-11-02T09:35:21;23.02;;;11.45;;
66179;SDS011;52986;44.028;20.466;2022-11-02T09:37:47;23.58;;;11.23;;
66179;SDS011;52986;44.028;20.466;2022-11-02T09:40:12;25.02;;;9.82;;
66179;SDS011;52986;44.028;20.466;2022-11-02T09:45:21;18.88;;;8.40;;
66179;SDS011;52986;44.028;20.466;2022-11-02T09:47:51;20.98;;;8.90;;
66179;SDS011;52986;44.028;20.466;2022-11-02T09:50:22;18.33;;;8.43;;
66179;SDS011;52986;44.028;20.466;2022-11-02T09:52:50;17.73;;;8.10;;
66179;SDS011;52986;44.028;20.466;2022-11-02T09:55:21;18.42;;;8.18;;
66179;SDS011;52986;44.028;20.466;2022-11-02T09:57:53;19.98;;;7.38;;
66179;SDS011;52986;44.028;20.466;2022-11-02T10:00:26;18.88;;;8.27;;
66179;SDS011;52986;44.028;20.466;2022-11-02T10:15:49;14.93;;;7.78;;
66179;SDS011;52986;44.028;20.466;2022-11-02T10:18:23;15.40;;;5.90;;
66179;SDS011;52986;44.028;20.466;2022-11-02T10:20:52;15.32;;;6.30;;
66179;SDS011;52986;44.028;20.466;2022-11-02T10:23:30;15.00;;;5.97;;
66179;SDS011;52986;44.028;20.466;2022-11-02T10:25:58;12.48;;;5.35;;
66179;SDS011;52986;44.028;20.466;2022-11-02T10:28:26;15.30;;;6.30;;
66179;SDS011;52986;44.028;20.466;2022-11-02T10:30:56;14.90;;;6.80;;
66179;SDS011;52986;44.028;20.466;2022-11-02T10:33:26;18.17;;;6.80;;
66179;SDS011;52986;44.028;20.466;2022-11-02T10:41:17;13.75;;;5.82;;
66179;SDS011;52986;44.028;20.466;2022-11-02T10:52:13;18.70;;;6.72;;
66179;SDS011;52986;44.028;20.466;2022-11-02T10:54:39;17.17;;;7.30;;
66179;SDS011;52986;44.028;20.466;2022-11-02T10:57:11;15.45;;;6.88;;
66179;SDS011;52986;44.028;20.466;2022-11-02T10:59:38;15.18;;;6.95;;
66179;SDS011;52986;44.028;20.466;2022-11-02T11:02:13;15.32;;;7.20;;
66179;SDS011;52986;44.028;20.466;2022-11-02T11:04:39;14.75;;;7.15;;
66179;SDS011;52986;44.028;20.466;2022-11-02T11:07:27;16.38;;;6.80;;
66179;SDS011;52986;44.028;20.466;2022-11-02T11:09:52;14.68;;;6.43;;
66179;SDS011;52986;44.028;20.466;2022-11-02T11:12:20;13.82;;;5.43;;
66179;SDS011;52986;44.028;20.466;2022-11-02T11:14:51;17.85;;;6.13;;
66179;SDS011;52986;44.028;20.466;2022-11-02T11:17:28;16.75;;;5.40;;
66179;SDS011;52986;44.028;20.466;2022-11-02T11:20:02;16.40;;;5.78;;
66179;SDS011;52986;44.028;20.466;2022-11-02T11:22:29;13.05;;;5.20;;
66179;SDS011;52986;44.028;20.466;2022-11-02T11:27:46;19.20;;;6.97;;
66179;SDS011;52986;44.028;20.466;2022-11-02T11:30:35;16.17;;;7.57;;
66179;SDS011;52986;44.028;20.466;2022-11-02T11:33:03;16.88;;;8.50;;
66179;SDS011;52986;44.028;20.466;2022-11-02T11:35:36;19.48;;;8.75;;
66179;SDS011;52986;44.028;20.466;2022-11-02T11:38:12;20.15;;;9.75;;
66179;SDS011;52986;44.028;20.466;2022-11-02T11:40:45;19.98;;;10.25;;
66179;SDS011;52986;44.028;20.466;2022-11-02T11:43:17;17.85;;;9.27;;
66179;SDS011;52986;44.028;20.466;2022-11-02T11:50:48;21.63;;;10.18;;
66179;SDS011;52986;44.028;20.466;2022-11-02T11:53:23;21.98;;;10.68;;
66179;SDS011;52986;44.028;20.466;2022-11-02T11:55:50;24.23;;;10.77;;
66179;SDS011;52986;44.028;20.466;2022-11-02T11:58:24;20.73;;;11.13;;
66179;SDS011;52986;44.028;20.466;2022-11-02T12:01:01;22.15;;;12.32;;
66179;SDS011;52986;44.028;20.466;2022-11-02T12:03:31;25.10;;;13.38;;
66179;SDS011;52986;44.028;20.466;2022-11-02T12:08:57;25.90;;;14.13;;
66179;SDS011;52986;44.028;20.466;2022-11-02T12:22:10;25.42;;;13.70;;
66179;SDS011;52986;44.028;20.466;2022-11-02T12:25:04;25.30;;;13.27;;
66179;SDS011;52986;44.028;20.466;2022-11-02T12:36:31;29.17;;;12.52;;
66179;SDS011;52986;44.028;20.466;2022-11-02T12:39:12;24.20;;;12.43;;
66179;SDS011;52986;44.028;20.466;2022-11-02T12:44:36;27.50;;;12.73;;
66179;SDS011;52986;44.028;20.466;2022-11-02T12:50:20;24.98;;;12.68;;
66179;SDS011;52986;44.028;20.466;2022-11-02T12:55:59;25.45;;;12.25;;
66179;SDS011;52986;44.028;20.466;2022-11-02T12:58:30;21.63;;;11.82;;
66179;SDS011;52986;44.028;20.466;2022-11-02T13:01:06;29.33;;;12.70;;
66179;SDS011;52986;44.028;20.466;2022-11-02T13:06:36;21.80;;;11.93;;
66179;SDS011;52986;44.028;20.466;2022-11-02T13:09:17;23.92;;;11.68;;
66179;SDS011;52986;44.028;20.466;2022-11-02T13:11:59;30.20;;;12.50;;
66179;SDS011;52986;44.028;20.466;2022-11-02T13:14:40;25.27;;;12.85;;
66179;SDS011;52986;44.028;20.466;2022-11-02T13:19:59;24.10;;;13.05;;
66179;SDS011;52986;44.028;20.466;2022-11-02T13:22:34;27.17;;;12.15;;
66179;SDS011;52986;44.028;20.466;2022-11-02T13:25:02;25.38;;;11.85;;
66179;SDS011;52986;44.028;20.466;2022-11-02T13:27:37;23.48;;;12.18;;
66179;SDS011;52986;44.028;20.466;2022-11-02T13:30:14;26.55;;;12.23;;
66179;SDS011;52986;44.028;20.466;2022-11-02T13:35:19;24.95;;;12.52;;
66179;SDS011;52986;44.028;20.466;2022-11-02T13:37:48;23.48;;;12.55;;
66179;SDS011;52986;44.028;20.466;2022-11-02T13:40:26;23.05;;;12.40;;
66179;SDS011;52986;44.028;20.466;2022-11-02T13:46:01;26.98;;;13.35;;
66179;SDS011;52986;44.028;20.466;2022-11-02T13:59:18;24.80;;;11.77;;
66179;SDS011;52986;44.028;20.466;2022-11-02T14:01:46;28.45;;;13.48;;
66179;SDS011;52986;44.028;20.466;2022-11-02T14:04:13;30.08;;;13.95;;
66179;SDS011;52986;44.028;20.466;2022-11-02T14:06:48;24.88;;;12.93;;
66179;SDS011;52986;44.028;20.466;2022-11-02T14:09:21;28.75;;;13.63;;
66179;SDS011;52986;44.028;20.466;2022-11-02T14:12:39;25.80;;;13.77;;
66179;SDS011;52986;44.028;20.466;2022-11-02T14:14:42;26.77;;;13.50;;
66179;SDS011;52986;44.028;20.466;2022-11-02T14:17:12;32.70;;;14.85;;
66179;SDS011;52986;44.028;20.466;2022-11-02T14:22:07;35.40;;;17.93;;
66179;SDS011;52986;44.028;20.466;2022-11-02T14:40:28;32.33;;;17.40;;
66179;SDS011;52986;44.028;20.466;2022-11-02T14:43:08;29.73;;;15.73;;
66179;SDS011;52986;44.028;20.466;2022-11-02T14:45:55;30.73;;;15.63;;
66179;SDS011;52986;44.028;20.466;2022-11-02T14:48:25;34.33;;;16.27;;
66179;SDS011;52986;44.028;20.466;2022-11-02T14:50:59;31.60;;;16.02;;
66179;SDS011;52986;44.028;20.466;2022-11-02T14:53:28;31.45;;;17.25;;
66179;SDS011;52986;44.028;20.466;2022-11-02T14:55:57;32.33;;;17.30;;
66179;SDS011;52986;44.028;20.466;2022-11-02T14:58:29;33.53;;;17.33;;
66179;SDS011;52986;44.028;20.466;2022-11-02T15:01:00;33.80;;;16.20;;
66179;SDS011;52986;44.028;20.466;2022-11-02T15:08:56;33.00;;;16.98;;
66179;SDS011;52986;44.028;20.466;2022-11-02T15:16:57;37.35;;;20.48;;
66179;SDS011;52986;44.028;20.466;2022-11-02T15:27:32;37.63;;;20.33;;
66179;SDS011;52986;44.028;20.466;2022-11-02T15:30:00;38.83;;;22.08;;
66179;SDS011;52986;44.028;20.466;2022-11-02T15:32:26;43.78;;;20.77;;
66179;SDS011;52986;44.028;20.466;2022-11-02T15:34:54;40.55;;;20.73;;
66179;SDS011;52986;44.028;20.466;2022-11-02T15:39:50;39.72;;;19.27;;
66179;SDS011;52986;44.028;20.466;2022-11-02T15:45:19;40.78;;;21.27;;
66179;SDS011;52986;44.028;20.466;2022-11-02T15:53:52;40.95;;;24.02;;
66179;SDS011;52986;44.028;20.466;2022-11-02T16:04:29;42.47;;;23.02;;
66179;SDS011;52986;44.028;20.466;2022-11-02T16:06:55;38.67;;;20.75;;
66179;SDS011;52986;44.028;20.466;2022-11-02T16:09:33;48.38;;;23.85;;
66179;SDS011;52986;44.028;20.466;2022-11-02T16:12:10;46.72;;;23.52;;
66179;SDS011;52986;44.028;20.466;2022-11-02T16:14:37;46.38;;;24.45;;
66179;SDS011;52986;44.028;20.466;2022-11-02T16:17:03;43.97;;;21.92;;
66179;SDS011;52986;44.028;20.466;2022-11-02T16:19:29;45.15;;;24.10;;
66179;SDS011;52986;44.028;20.466;2022-11-02T16:21:54;51.72;;;25.65;;
66179;SDS011;52986;44.028;20.466;2022-11-02T16:24:20;49.70;;;26.98;;
66179;SDS011;52986;44.028;20.466;2022-11-02T16:26:45;49.22;;;25.13;;
66179;SDS011;52986;44.028;20.466;2022-11-02T16:29:20;46.58;;;24.08;;
66179;SDS011;52986;44.028;20.466;2022-11-02T16:31:51;47.08;;;23.85;;
66179;SDS011;52986;44.028;20.466;2022-11-02T16:34:24;46.85;;;23.60;;
66179;SDS011;52986;44.028;20.466;2022-11-02T16:36:53;51.30;;;26.42;;
66179;SDS011;52986;44.028;20.466;2022-11-02T16:41:58;60.83;;;32.05;;
66179;SDS011;52986;44.028;20.466;2022-11-02T16:44:31;77.50;;;40.10;;
66179;SDS011;52986;44.028;20.466;2022-11-02T16:49:33;48.33;;;26.02;;
66179;SDS011;52986;44.028;20.466;2022-11-02T16:52:37;51.42;;;26.30;;
66179;SDS011;52986;44.028;20.466;2022-11-02T16:55:27;52.58;;;26.38;;
66179;SDS011;52986;44.028;20.466;2022-11-02T16:58:01;51.90;;;25.48;;
66179;SDS011;52986;44.028;20.466;2022-11-02T17:00:27;56.88;;;28.50;;
66179;SDS011;52986;44.028;20.466;2022-11-02T17:02:53;55.75;;;28.92;;
66179;SDS011;52986;44.028;20.466;2022-11-02T17:05:23;56.80;;;28.90;;
66179;SDS011;52986;44.028;20.466;2022-11-02T17:10:28;59.28;;;29.00;;
66179;SDS011;52986;44.028;20.466;2022-11-02T17:12:55;54.10;;;28.00;;
66179;SDS011;52986;44.028;20.466;2022-11-02T17:15:25;65.38;;;30.02;;
66179;SDS011;52986;44.028;20.466;2022-11-02T17:20:33;64.63;;;31.35;;
66179;SDS011;52986;44.028;20.466;2022-11-02T17:23:04;68.93;;;32.97;;
66179;SDS011;52986;44.028;20.466;2022-11-02T17:25:35;69.60;;;32.22;;
66179;SDS011;52986;44.028;20.466;2022-11-02T17:28:03;73.55;;;32.90;;
66179;SDS011;52986;44.028;20.466;2022-11-02T17:30:49;74.25;;;33.25;;
66179;SDS011;52986;44.028;20.466;2022-11-02T17:33:26;78.57;;;33.42;;
66179;SDS011;52986;44.028;20.466;2022-11-02T17:35:54;74.05;;;33.25;;
66179;SDS011;52986;44.028;20.466;2022-11-02T17:38:27;80.45;;;33.70;;